Flight Track Log - Related Links

Times and Time Zones

All times are in EDT time to prevent confusion due to time zone crossing. See the UAL258 flight status page for this flight to view local times or setup timezone preferences in your user account.

Time Position Orientation Groundspeed Altitude Reporting Facility
EDT Latitude Longitude Course Direction KTS MPH feet Rate Location/Type
Fri 09:00:54 AM 41.9333 -87.9167 261° West 162 186 2,600  Level Chicago TRACON
Fri 09:01:54 AM 41.9000 -87.9667 228° Southwest 156 180 4,100 1,263 Climbing Chicago TRACON
Fri 09:02:48 AM 41.9000 -88.0333 270° West 233 268 5,000 1,967 Climbing Chicago TRACON
Fri 09:03:00 AM 41.9327 -88.3367 255° West  Level FlightAware Approximate
Fri 09:04:00 AM 41.9148 -88.4823 261° West  Level FlightAware Approximate
Fri 09:04:54 AM 41.9081 -88.2267 273° West 276 318 10,000  Level Chicago Center
Fri 09:05:00 AM 41.8977 -88.6291 261° West  Level FlightAware Approximate
Fri 09:05:56 AM 41.9089 -88.3575 271° West 289 333 12,700  Level Chicago Center
Fri 09:06:00 AM 41.8804 -88.7759 261° West  Level FlightAware Approximate
Fri 09:06:57 AM 41.9086 -88.4803 270° West 318 366 14,300  Level Chicago Center
Fri 09:07:59 AM 41.9089 -88.6136 270° West 352 405 16,300 1,810 Climbing Chicago Center
Fri 09:09:03 AM 41.9078 -88.7503 269° West 367 422 18,100 1,680 Climbing Chicago Center
Fri 09:10:04 AM 41.8961 -88.8878 264° West 374 430 19,800 1,672 Climbing Chicago Center
Fri 09:11:05 AM 41.8875 -89.0308 265° West 385 443 21,500 1,721 Climbing Chicago Center
Fri 09:12:06 AM 41.8764 -89.2072 265° West 397 457 23,300 1,452 Climbing Chicago Center
Fri 09:13:09 AM 41.8656 -89.3556 264° West 403 464 24,500 1,008 Climbing Chicago Center
Fri 09:14:11 AM 41.8511 -89.5100 263° West 417 480 25,400 1,091 Climbing Chicago Center
Fri 09:15:10 AM 41.8358 -89.6664 263° West 425 489 26,700 1,033 Climbing Chicago Center
Fri 09:16:13 AM 41.8200 -89.8250 262° West 431 496 27,500 919 Climbing Chicago Center
Fri 09:17:14 AM 41.8031 -90.0128 263° West 448 516 28,600 1,016 Climbing Chicago Center
Fri 09:18:17 AM 41.7875 -90.1656 262° West 450 518 29,600 1,016 Climbing Chicago Center
Fri 09:19:18 AM 41.7692 -90.3322 262° West 454 522 30,700 1,016 Climbing Chicago Center
Fri 09:20:21 AM 41.7528 -90.4972 262° West 451 519 31,700 1,056 Climbing Chicago Center
Fri 09:21:23 AM 41.7350 -90.6689 262° West 442 509 32,900 984 Climbing Chicago Center
Fri 09:22:23 AM 41.7169 -90.8294 261° West 440 506 33,700 545 Climbing Chicago Center
Fri 09:23:24 AM 41.6972 -91.0211 262° West 436 502 34,000 144 Climbing Chicago Center
Fri 09:24:28 AM 41.6797 -91.1806 262° West 436 502 34,000  Level Chicago Center
Fri 09:25:29 AM 41.6619 -91.3397 262° West 435 501 34,000  Level Chicago Center
Fri 09:26:30 AM 41.6436 -91.5011 261° West 440 506 34,000  Level Chicago Center
Fri 09:27:34 AM 41.6250 -91.6617 261° West 440 506 34,000  Level Chicago Center
Fri 09:28:35 AM 41.6069 -91.8228 262° West 441 507 34,000  Level Chicago Center
Fri 09:29:36 AM 41.5839 -92.0172 261° West 443 510 34,000  Level Chicago Center
Fri 09:30:38 AM 41.5639 -92.1800 261° West 446 513 34,000  Level Chicago Center
Fri 09:31:39 AM 41.5458 -92.3428 262° West 446 513 34,000  Level Chicago Center
Fri 09:32:43 AM 41.5256 -92.5033 260° West 443 510 34,000  Level Chicago Center
Fri 09:33:57 AM 41.4972 -92.7289 261° West 441 507 34,000  Level Minneapolis Center
Fri 09:34:59 AM 41.4775 -92.8883 261° West 440 506 34,000  Level Minneapolis Center
Fri 09:36:00 AM 41.4569 -93.0472 260° West 440 506 34,000  Level Minneapolis Center
Fri 09:37:02 AM 41.4369 -93.2028 260° West 437 503 34,000  Level Minneapolis Center
Fri 09:38:03 AM 41.4169 -93.3581 260° West 435 501 34,000  Level Minneapolis Center
Fri 09:39:05 AM 41.3972 -93.5089 260° West 429 494 34,000  Level Minneapolis Center
Fri 09:40:06 AM 41.3747 -93.6847 260° West 416 479 34,000  Level Minneapolis Center
Fri 09:41:08 AM 41.3553 -93.8358 260° West 418 481 34,000  Level Minneapolis Center
Fri 09:42:09 AM 41.3344 -93.9875 260° West 420 483 34,000  Level Minneapolis Center
Fri 09:43:11 AM 41.3133 -94.1417 260° West 425 489 34,000  Level Minneapolis Center
Fri 09:44:13 AM 41.2889 -94.3122 259° West 427 491 34,000  Level Minneapolis Center
Fri 09:45:14 AM 41.2692 -94.4667 260° West 425 489 34,000  Level Minneapolis Center
Fri 09:46:16 AM 41.2461 -94.6250 259° West 432 497 34,000  Level Minneapolis Center
Fri 09:47:17 AM 41.2231 -94.7836 259° West 435 501 34,000  Level Minneapolis Center
Fri 09:48:19 AM 41.2011 -94.9400 259° West 433 498 34,000  Level Minneapolis Center
Fri 09:49:21 AM 41.1772 -95.0989 259° West 435 501 34,000  Level Minneapolis Center
Fri 09:50:22 AM 41.1536 -95.2581 259° West 437 503 34,000  Level Minneapolis Center
Fri 09:51:24 AM 41.1244 -95.4494 259° West 438 504 34,000  Level Minneapolis Center
Fri 09:52:25 AM 41.0997 -95.6072 258° West 436 502 34,000  Level Minneapolis Center
Fri 09:53:27 AM 41.0756 -95.7672 259° West 436 502 34,000  Level Minneapolis Center
Fri 09:54:41 AM 41.0456 -95.9589 258° West 438 504 34,000  Level Minneapolis Center
Fri 09:55:42 AM 41.0217 -96.1189 259° West 438 504 34,000  Level Minneapolis Center
Fri 09:56:44 AM 40.9967 -96.2772 258° West 437 503 34,000 97 Level Minneapolis Center
Fri 09:57:46 AM 40.9714 -96.4356 258° West 437 503 34,200 439 Climbing Minneapolis Center
Fri 09:58:47 AM 40.9472 -96.5944 259° West 439 505 34,900 683 Climbing Minneapolis Center
Fri 09:59:49 AM 40.9211 -96.7519 258° West 438 504 35,600 532 Climbing Minneapolis Center
Fri 10:00:51 AM 40.8792 -96.9019 250° West 435 501 36,000 194 Climbing Minneapolis Center
Fri 10:01:53 AM 40.8269 -97.0792 249° West 432 497 36,000  Level Minneapolis Center
Fri 10:02:54 AM 40.7842 -97.2278 249° West 433 498 36,000  Level Minneapolis Center
Fri 10:03:56 AM 40.7400 -97.3803 249° West 434 499 36,000  Level Minneapolis Center
Fri 10:04:58 AM 40.6969 -97.5297 249° West 435 501 36,000  Level Minneapolis Center
Fri 10:05:59 AM 40.6539 -97.6789 249° West 435 501 36,000  Level Minneapolis Center
Fri 10:07:01 AM 40.6106 -97.8286 249° West 435 501 36,000  Level Minneapolis Center
Fri 10:08:03 AM 40.5661 -97.9769 249° West 435 501 36,000  Level Minneapolis Center
Fri 10:09:04 AM 40.5214 -98.1253 248° West 435 501 36,000  Level Minneapolis Center
Fri 10:10:06 AM 40.4778 -98.2736 249° West 434 499 36,000  Level Minneapolis Center
Fri 10:11:08 AM 40.4339 -98.4206 249° West 432 497 36,000  Level Minneapolis Center
Fri 10:12:09 AM 40.3794 -98.5986 248° West 434 499 36,000  Level Minneapolis Center
Fri 10:13:11 AM 40.3347 -98.7481 249° West 437 503 36,000  Level Minneapolis Center
Fri 10:14:13 AM 40.2883 -98.8986 248° West 441 507 36,000  Level Minneapolis Center
Fri 10:14:46 AM 40.2608 -98.9889 248° West 441 507 36,000  Level Denver Center
Fri 10:15:47 AM 40.2150 -99.1381 248° West 441 507 36,000  Level Denver Center
Fri 10:16:49 AM 40.1689 -99.2856 248° West 437 503 36,000  Level Denver Center
Fri 10:17:51 AM 40.1231 -99.4331 248° West 437 503 36,000  Level Denver Center
Fri 10:18:52 AM 40.0769 -99.5817 248° West 440 506 36,000  Level Denver Center
Fri 10:19:54 AM 40.0294 -99.7322 248° West 446 513 36,000 48 Level Denver Center
Fri 10:20:56 AM 39.9819 -99.8803 247° West 443 510 36,100  Climbing Denver Center
Fri 10:21:57 AM 39.9356 -100.0278 248° West 441 507 36,000 -49 Descending Denver Center
Fri 10:22:59 AM 39.8883 -100.1736 247° West 437 503 36,000  Level Denver Center
Fri 10:24:01 AM 39.8364 -100.3328 247° West 435 501 36,000  Level Denver Center
Fri 10:25:03 AM 39.7833 -100.4967 247° West 439 505 36,000  Level Denver Center
Fri 10:26:04 AM 39.7383 -100.6375 247° West 439 505 36,000  Level Denver Center
Fri 10:27:06 AM 39.6925 -100.7758 247° West 435 501 36,000  Level Denver Center
Fri 10:28:20 AM 39.6392 -100.9375 247° West 436 502 36,000  Level Denver Center
Fri 10:29:22 AM 39.5781 -101.1242 247° West 439 505 36,000  Level Denver Center
Fri 10:30:24 AM 39.5322 -101.2625 247° West 436 502 36,000  Level Denver Center
Fri 10:31:26 AM 39.4778 -101.4256 247° West 441 507 36,000  Level Denver Center
Fri 10:32:28 AM 39.4314 -101.5628 246° West 437 503 36,000  Level Denver Center
Fri 10:33:30 AM 39.3889 -101.7019 248° West 435 501 36,000  Level Denver Center
Fri 10:34:32 AM 39.3606 -101.8703 258° West 430 495 36,000  Level Denver Center
Fri 10:35:34 AM 39.3383 -102.0144 259° West 428 493 36,000  Level Denver Center
Fri 10:36:36 AM 39.3122 -102.1872 259° West 424 488 36,000  Level Denver Center
Fri 10:37:38 AM 39.2903 -102.3300 259° West 425 489 36,000  Level Denver Center
Fri 10:38:40 AM 39.2642 -102.4972 259° West 427 491 36,000  Level Denver Center
Fri 10:39:42 AM 39.2406 -102.6419 258° West 431 496 36,000  Level Denver Center
Fri 10:40:44 AM 39.2172 -102.7889 258° West 429 494 36,000  Level Denver Center
Fri 10:41:46 AM 39.1906 -102.9569 258° West 429 494 36,000  Level Denver Center
Fri 10:42:48 AM 39.1669 -103.1008 258° West 429 494 36,000  Level Denver Center
Fri 10:43:51 AM 39.1392 -103.2689 258° West 432 497 36,000  Level Denver Center
Fri 10:44:53 AM 39.1158 -103.4131 258° West 431 496 36,000  Level Denver Center
Fri 10:45:55 AM 39.0878 -103.5822 258° West 434 499 36,000  Level Denver Center
Fri 10:46:57 AM 39.0628 -103.7261 257° West 433 498 36,000  Level Denver Center
Fri 10:47:59 AM 39.0344 -103.8956 258° West 434 499 36,000  Level Denver Center
Fri 10:49:01 AM 39.0100 -104.0403 258° West 434 499 36,000  Level Denver Center
Fri 10:50:03 AM 38.9811 -104.2081 258° West 433 498 36,000  Level Denver Center
Fri 10:51:05 AM 38.9558 -104.3508 257° West 429 494 36,000  Level Denver Center
Fri 10:52:07 AM 38.9264 -104.5186 257° West 435 501 36,000  Level Denver Center
Fri 10:53:09 AM 38.9014 -104.6586 257° West 426 490 36,000  Level Denver Center
Fri 10:54:11 AM 38.8719 -104.8256 257° West 429 494 36,000  Level Denver Center
Fri 10:55:13 AM 38.8472 -104.9636 257° West 419 482 36,000  Level Denver Center
Fri 10:56:15 AM 38.8206 -105.1031 256° West 421 484 36,000  Level Denver Center
Fri 10:57:17 AM 38.7928 -105.2661 258° West 420 483 36,000  Level Denver Center
Fri 10:58:19 AM 38.7664 -105.4075 257° West 424 488 36,000  Level Denver Center
Fri 10:59:21 AM 38.7344 -105.5725 256° West 426 490 36,000  Level Denver Center
Fri 11:00:35 AM 38.7089 -105.7128 257° West 426 490 36,000  Level Denver Center
Fri 11:01:37 AM 38.6839 -105.8800 259° West 431 496 36,000  Level Denver Center
Fri 11:02:40 AM 38.7025 -106.0736 277° West 433 498 36,000  Level Denver Center
Fri 11:03:42 AM 38.7164 -106.2058 278° West 432 497 36,000  Level Denver Center
Fri 11:04:44 AM 38.7103 -106.3608 267° West 430 495 36,000  Level Denver Center
Fri 11:05:46 AM 38.7003 -106.5450 266° West 430 495 36,000  Level Denver Center
Fri 11:06:48 AM 38.6917 -106.6989 266° West 430 495 36,000  Level Denver Center
Fri 11:07:50 AM 38.6839 -106.8497 266° West 425 489 36,000  Level Denver Center
Fri 11:08:52 AM 38.6450 -106.9928 251° West 425 489 36,000  Level Denver Center
Fri 11:09:54 AM 38.5897 -107.1250 242° Southwest 423 487 36,000  Level Denver Center
Fri 11:10:56 AM 38.5314 -107.2614 241° Southwest 418 481 36,000  Level Denver Center
Fri 11:11:58 AM 38.4700 -107.4081 242° Southwest 420 483 36,000  Level Denver Center
Fri 11:13:00 AM 38.4167 -107.5325 241° Southwest 417 480 36,000  Level Denver Center
Fri 11:14:02 AM 38.3539 -107.6794 241° Southwest 421 484 36,000  Level Denver Center
Fri 11:15:04 AM 38.3039 -107.7964 241° Southwest 405 466 36,000  Level Denver Center
Fri 11:16:06 AM 38.2414 -107.9408 241° Southwest 413 475 36,000  Level Denver Center
Fri 11:17:08 AM 38.1872 -108.0686 242° Southwest 425 489 36,000 48 Level Denver Center
Fri 11:18:10 AM 38.1319 -108.1950 241° Southwest 428 493 36,100 48 Climbing Denver Center
Fri 11:19:12 AM 38.0653 -108.3508 242° Southwest 429 494 36,100 -48 Level Denver Center
Fri 11:20:14 AM 38.0108 -108.4728 240° Southwest 421 484 36,000 -44 Descending Denver Center
Fri 11:21:28 AM 37.9467 -108.6175 241° Southwest 422 486 36,000  Level Denver Center
Fri 11:22:31 AM 37.8839 -108.7606 241° Southwest 418 481 36,000  Level Denver Center
Fri 11:23:33 AM 37.8225 -108.9014 241° Southwest 412 474 36,000  Level Denver Center
Fri 11:24:35 AM 37.7839 -109.0300 249° West 411 473 36,000  Level Denver Center
Fri 11:25:49 AM 37.7464 -109.1842 253° West 412 474 36,000  Level Denver Center
Fri 11:26:51 AM 37.7014 -109.3631 252° West 418 481 36,000  Level Denver Center
Fri 11:27:53 AM 37.6683 -109.4953 253° West 415 478 36,000  Level Denver Center
Fri 11:28:55 AM 37.6342 -109.6292 252° West 419 482 36,000  Level Denver Center
Fri 11:29:57 AM 37.5947 -109.7858 252° West 420 483 36,000  Level Denver Center
Fri 11:30:59 AM 37.5614 -109.9181 252° West 416 479 36,000 -290 Level Denver Center
Fri 11:32:01 AM 37.5225 -110.0703 252° West 410 472 35,400 -662 Descending Denver Center
Fri 11:33:15 AM 37.4878 -110.2014 252° West 412 474 34,500 -876 Descending Denver Center
Fri 11:34:18 AM 37.4469 -110.3600 252° West 402 463 33,400 -1,007 Descending Denver Center
Fri 11:35:32 AM 37.4042 -110.5200 251° West 402 463 32,200 -618 Descending Denver Center
Fri 11:36:34 AM 37.3625 -110.6806 252° West 403 464 32,000 -96 Descending Denver Center
Fri 11:37:37 AM 37.3269 -110.8144 252° West 404 465 32,000  Level Denver Center
Fri 11:38:38 AM 37.2925 -110.9483 252° West 405 466 32,000  Level Denver Center
Fri 11:39:40 AM 37.2597 -111.0806 253° West 398 458 32,000  Level Denver Center
Fri 11:40:42 AM 37.2233 -111.2156 251° West 405 466 32,000 -242 Level Denver Center
Fri 11:41:44 AM 37.1808 -111.3781 252° West 408 470 31,500 -816 Descending Denver Center
Fri 11:42:47 AM 37.1439 -111.5114 251° West 406 467 30,300 -1,248 Descending Denver Center
Fri 11:43:49 AM 37.1064 -111.6450 251° West 406 467 28,900 -1,113 Descending Denver Center
Fri 11:44:51 AM 37.0697 -111.7764 251° West 402 463 28,000 -435 Descending Denver Center
Fri 11:45:53 AM 37.0364 -111.9100 253° West 401 461 28,000  Level Denver Center
Fri 11:46:55 AM 37.0028 -112.0503 253° West 414 476 28,000  Level Denver Center
Fri 11:47:41 AM 36.9758 -112.1606 253° West 413 475 28,000  Level Los Angeles Center
Fri 11:48:43 AM 36.9422 -112.3008 253° West 418 481 28,000  Level Los Angeles Center
Fri 11:49:46 AM 36.9011 -112.4664 253° West 415 478 28,000  Level Los Angeles Center
Fri 11:51:00 AM 36.8683 -112.6036 253° West 412 474 28,000  Level Los Angeles Center
Fri 11:52:02 AM 36.8283 -112.7681 253° West 412 474 28,000  Level Los Angeles Center
Fri 11:53:04 AM 36.7950 -112.9028 253° West 407 468 28,000  Level Los Angeles Center
Fri 11:54:06 AM 36.7611 -113.0397 253° West 411 473 28,000 -484 Level Los Angeles Center
Fri 11:55:08 AM 36.7278 -113.1769 253° West 413 475 27,000 -919 Descending Los Angeles Center
Fri 11:56:10 AM 36.6933 -113.3106 252° West 408 470 26,100 -1,008 Descending Los Angeles Center
Fri 11:57:13 AM 36.6542 -113.4703 253° West 402 463 24,900 -1,056 Descending Los Angeles Center
Fri 11:58:15 AM 36.6206 -113.6008 252° West 398 458 23,900 -968 Descending Los Angeles Center
Fri 11:59:17 AM 36.5867 -113.7306 252° West 396 456 22,900 -1,065 Descending Los Angeles Center
Fri 12:00:19 PM 36.5542 -113.8586 253° West 392 451 21,700 -1,645 Descending Los Angeles Center
Fri 12:01:21 PM 36.5219 -113.9833 252° West 384 442 19,500 -2,419 Descending Los Angeles Center
Fri 12:02:23 PM 36.4881 -114.1108 252° West 367 422 16,700 -2,765 Descending Los Angeles Center
Fri 12:03:16 PM 36.4647 -114.2256 256° West 363 418 14,200 -2,400 Descending Los Angeles Center
Fri 12:03:58 PM 36.4411 -114.3139 252° West 352 405 12,900 -1,268 Descending Los Angeles Center
Fri 12:04:27 PM 36.4300 -114.3425 244° Southwest 348 400 12,700 -787 Descending Los Angeles Center
Fri 12:04:59 PM 36.4144 -114.4169 255° West 309 356 12,100 -677 Descending Los Angeles Center
Fri 12:05:29 PM 36.3981 -114.4603 245° Southwest 301 346 12,000 -98 Descending Los Angeles Center
Fri 12:06:00 PM 36.3697 -114.4883 219° Southwest 270 311 12,000  Level Los Angeles Center
Fri 12:06:32 PM 36.3331 -114.4878 179° South 260 299 12,000 -393 Level Los Angeles Center
Fri 12:07:01 PM 36.3036 -114.4919 187° South 227 261 11,600 -871 Descending Los Angeles Center
Fri 12:07:34 PM 36.2714 -114.4900 177° South 225 259 11,100 -984 Descending Los Angeles Center
Fri 12:08:02 PM 36.2428 -114.4914 182° South 222 255 10,600 -968 Descending Los Angeles Center
Fri 12:08:36 PM 36.2100 -114.4897 178° South 221 254 10,100 -1,082 Descending Los Angeles Center
Fri 12:09:03 PM 36.1781 -114.4919 183° South 219 252 9,500 -1,258 Descending Los Angeles Center
Fri 12:09:38 PM 36.1489 -114.4900 177° South 219 252 8,800 -1,377 Descending Los Angeles Center
Fri 12:10:04 PM 36.1242 -114.5128 217° Southwest 212 244 8,100 -774 Descending Los Angeles Center
Fri 12:10:40 PM 36.0997 -114.5308 211° Southwest 215 247 8,000 -98 Descending Los Angeles Center
Fri 12:11:05 PM 36.0900 -114.5725 254° West 219 252 8,000 97 Level Los Angeles Center
Fri 12:11:42 PM 36.0744 -114.6156 246° West 218 251 8,100  Climbing Los Angeles Center
Fri 12:12:05 PM 36.0756 -114.6439 273° West 218 251 8,000  Descending Los Angeles Center
Fri 12:12:44 PM 36.0714 -114.6911 264° West 220 253 8,100  Climbing Los Angeles Center
Fri 12:13:06 PM 36.0747 -114.7186 279° West 219 252 8,000 -290 Descending Los Angeles Center
Fri 12:13:46 PM 36.0697 -114.7664 263° West 219 252 7,800 -590 Descending Los Angeles Center
Fri 12:14:07 PM 36.0742 -114.7936 281° West 223 257 7,400 -1,258 Descending Los Angeles Center
Fri 12:14:48 PM 36.0703 -114.8417 264° West 219 252 6,500 -1,377 Descending Los Angeles Center
Fri 12:15:08 PM 36.0750 -114.8758 280° West 216 249 6,000 -1,048 Descending Los Angeles Center
Fri 12:15:51 PM 36.0714 -114.9178 264° West 220 253 5,400 -1,082 Descending Los Angeles Center
Fri 12:16:09 PM 36.0733 -114.9481 275° West 191 220 4,900 -1,667 Descending Los Angeles Center

Login

Don't have an account? Register now (free) for customized features, flight alerts, and more!